createdAt,value
2023-02-25T00:01:10.207Z,96244.69
2023-02-25T00:03:38.210Z,96255.16
2023-02-25T00:06:08.152Z,96258.53
2023-02-25T00:08:36.532Z,96267.25
2023-02-25T00:11:07.098Z,96280.03
2023-02-25T00:13:35.855Z,96273.94
2023-02-25T00:16:04.483Z,96275.69
2023-02-25T00:18:33.895Z,96275.94
2023-02-25T00:21:06.130Z,96282.75
2023-02-25T00:23:34.136Z,96280.16
2023-02-25T00:26:03.046Z,96282.91
2023-02-25T00:28:31.250Z,96280.31
2023-02-25T00:30:59.134Z,96271.84
2023-02-25T00:33:27.046Z,96265.88
2023-02-25T00:35:56.638Z,96262.44
2023-02-25T00:38:24.672Z,96281.53
2023-02-25T00:40:52.494Z,96272.31
2023-02-25T00:43:22.154Z,96270.63
2023-02-25T00:45:50.515Z,96270.63
2023-02-25T00:48:18.583Z,96282.00
2023-02-25T00:50:46.357Z,96275.91
2023-02-25T00:53:15.732Z,96282.84
2023-02-25T00:55:44.026Z,96278.50
2023-02-25T00:58:11.919Z,96278.50
2023-02-25T01:00:51.377Z,96276.81
2023-02-25T01:03:20.138Z,96288.88
2023-02-25T01:05:49.586Z,96286.34
2023-02-25T01:08:20.695Z,96282.00
2023-02-25T01:10:49.308Z,96280.34
2023-02-25T01:13:17.621Z,96282.84
2023-02-25T01:15:45.883Z,96277.00
2023-02-25T01:18:13.865Z,96272.13
2023-02-25T01:20:41.939Z,96271.41
2023-02-25T01:23:09.777Z,96275.03
2023-02-25T01:25:42.027Z,96266.84
2023-02-25T01:28:09.978Z,96277.09
2023-02-25T01:30:39.969Z,96265.25
2023-02-25T01:33:07.839Z,96273.03
2023-02-25T01:35:37.221Z,96277.63
2023-02-25T01:38:05.357Z,96277.03
2023-02-25T01:40:33.288Z,96273.97
2023-02-25T01:43:02.488Z,96272.28
2023-02-25T01:45:32.600Z,96267.25
2023-02-25T01:48:11.900Z,96273.25
2023-02-25T01:50:44.112Z,96270.78
2023-02-25T01:53:13.789Z,96262.16
2023-02-25T01:55:42.693Z,96268.19
2023-02-25T01:58:13.474Z,96269.09
2023-02-25T02:00:42.065Z,96270.78
2023-02-25T02:03:16.363Z,96265.72
2023-02-25T02:05:52.682Z,96274.94
2023-02-25T02:08:20.779Z,96269.94
2023-02-25T02:10:48.803Z,96269.75
2023-02-25T02:13:18.546Z,96284.47
2023-02-25T02:15:53.019Z,96276.88
2023-02-25T02:18:21.623Z,96275.66
2023-02-25T02:20:59.830Z,96272.22
2023-02-25T02:23:53.939Z,96273.97
2023-02-25T02:26:47.770Z,96273.97
2023-02-25T02:30:12.651Z,96281.69
2023-02-25T02:32:44.620Z,96281.81
2023-02-25T02:35:20.500Z,96265.97
2023-02-25T02:37:59.130Z,96285.25
2023-02-25T02:40:46.256Z,96290.63
2023-02-25T02:43:23.077Z,96289.84
2023-02-25T02:46:00.930Z,96282.13
2023-02-25T02:48:35.306Z,96280.31
2023-02-25T02:51:05.099Z,96274.28
2023-02-25T02:53:36.329Z,96273.44
2023-02-25T02:56:07.223Z,96285.50
2023-02-25T02:58:38.330Z,96276.69
2023-02-25T03:01:09.879Z,96288.03
2023-02-25T03:03:41.799Z,96280.97
2023-02-25T03:06:13.970Z,96278.38
2023-02-25T03:08:45.896Z,96284.47
2023-02-25T03:11:14.513Z,96291.34
2023-02-25T03:13:44.844Z,96303.59
2023-02-25T03:16:16.248Z,96314.03
2023-02-25T03:18:49.066Z,96311.38
2023-02-25T03:21:21.655Z,96310.91
2023-02-25T03:23:52.921Z,96318.69
2023-02-25T03:26:24.694Z,96319.38
2023-02-25T03:28:53.456Z,96316.72
2023-02-25T03:31:26.016Z,96306.34
2023-02-25T03:33:57.891Z,96314.88
2023-02-25T03:36:28.744Z,96303.28
2023-02-25T03:39:00.698Z,96315.88
2023-02-25T03:41:35.689Z,96313.44
2023-02-25T03:44:07.152Z,96317.16
2023-02-25T03:46:36.257Z,96317.16
2023-02-25T03:49:08.755Z,96311.19
2023-02-25T03:51:41.686Z,96316.41
2023-02-25T03:54:09.540Z,96321.59
2023-02-25T03:56:44.777Z,96333.72
2023-02-25T03:59:13.224Z,96330.44
2023-02-25T04:01:42.787Z,96316.94
2023-02-25T04:04:12.397Z,96324.34
2023-02-25T04:06:40.685Z,96332.88
2023-02-25T04:09:08.872Z,96327.75
2023-02-25T04:11:36.787Z,96323.50
2023-02-25T04:14:04.770Z,96331.34
2023-02-25T04:16:32.625Z,96337.38
2023-02-25T04:19:00.712Z,96337.69
2023-02-25T04:21:32.434Z,96341.88
2023-02-25T04:24:00.849Z,96351.28
2023-02-25T04:26:28.802Z,96345.25
2023-02-25T04:28:56.913Z,96342.72
2023-02-25T04:31:24.786Z,96344.47
2023-02-25T04:33:52.615Z,96342.72
2023-02-25T04:36:25.750Z,96346.44
2023-02-25T04:38:55.672Z,96341.41
2023-02-25T04:41:24.065Z,96344.00
2023-02-25T04:43:51.929Z,96338.00
2023-02-25T04:46:20.588Z,96333.78
2023-02-25T04:48:48.471Z,96330.47
2023-02-25T04:51:17.577Z,96330.56
2023-02-25T04:53:47.002Z,96326.22
2023-02-25T04:56:16.899Z,96309.84
2023-02-25T04:58:44.843Z,96342.06
2023-02-25T05:01:13.240Z,96343.00
2023-02-25T05:03:41.682Z,96341.38
2023-02-25T05:06:09.818Z,96329.69
2023-02-25T05:08:37.913Z,96339.84
2023-02-25T05:11:06.608Z,96344.88
2023-02-25T05:13:35.782Z,96339.69
2023-02-25T05:16:08.126Z,96327.50
2023-02-25T05:18:38.136Z,96327.50
2023-02-25T05:21:07.335Z,96337.16
2023-02-25T05:23:35.117Z,96334.66
2023-02-25T05:26:02.864Z,96336.56
2023-02-25T05:28:30.667Z,96335.72
2023-02-25T05:31:00.023Z,96344.47
2023-02-25T05:33:28.221Z,96357.81
2023-02-25T05:35:55.986Z,96338.72
2023-02-25T05:38:23.824Z,96344.06
2023-02-25T05:40:51.575Z,96326.75
2023-02-25T05:43:19.381Z,96334.47
2023-02-25T05:45:54.036Z,96333.84
2023-02-25T05:48:23.825Z,96311.69
2023-02-25T05:50:52.147Z,96313.75
2023-02-25T05:53:20.404Z,96321.50
2023-02-25T05:55:48.188Z,96325.00
2023-02-25T05:58:15.976Z,96333.69
2023-02-25T06:00:43.770Z,96338.88
2023-02-25T06:03:11.760Z,96321.66
2023-02-25T06:05:42.647Z,96333.53
2023-02-25T06:08:13.121Z,96338.09
2023-02-25T06:10:41.266Z,96355.13
2023-02-25T06:13:10.555Z,96359.56
2023-02-25T06:15:38.960Z,96352.47
2023-02-25T06:18:07.292Z,96352.47
2023-02-25T06:20:35.949Z,96355.84
2023-02-25T06:23:05.166Z,96356.75
2023-02-25T06:25:33.085Z,96367.13
2023-02-25T06:28:01.923Z,96368.03
2023-02-25T06:30:30.776Z,96374.75
2023-02-25T06:32:59.135Z,96366.22
2023-02-25T06:35:27.207Z,96377.97
2023-02-25T06:37:56.870Z,96377.97
2023-02-25T06:40:26.501Z,96378.88
2023-02-25T06:42:54.338Z,96386.38
2023-02-25T06:45:22.168Z,96382.88
2023-02-25T06:47:50.321Z,96387.00
2023-02-25T06:50:18.667Z,96369.69
2023-02-25T06:52:46.470Z,96388.19
2023-02-25T06:55:14.280Z,96379.63
2023-02-25T06:57:43.746Z,96392.84
2023-02-25T07:00:13.104Z,96396.28
2023-02-25T07:02:40.926Z,96391.09
2023-02-25T07:05:09.523Z,96398.44
2023-02-25T07:07:37.283Z,96404.38
2023-02-25T07:10:06.986Z,96404.78
2023-02-25T07:12:34.877Z,96396.09
2023-02-25T07:15:04.318Z,96409.31
2023-02-25T07:17:32.271Z,96409.44
2023-02-25T07:20:00.124Z,96413.66
2023-02-25T07:22:27.976Z,96413.72
2023-02-25T07:24:55.811Z,96418.97
2023-02-25T07:27:24.932Z,96433.03
2023-02-25T07:29:52.968Z,96440.94
2023-02-25T07:32:22.241Z,96442.84
2023-02-25T07:34:50.371Z,96428.69
2023-02-25T07:37:18.103Z,96442.44
2023-02-25T07:39:47.683Z,96442.50
2023-02-25T07:42:15.571Z,96443.69
2023-02-25T07:44:43.360Z,96437.66
2023-02-25T07:47:11.268Z,96421.00
2023-02-25T07:49:40.475Z,96440.25
2023-02-25T07:52:08.399Z,96444.41
2023-02-25T07:54:36.352Z,96430.53
2023-02-25T07:57:04.965Z,96450.00
2023-02-25T07:59:34.100Z,96452.41
2023-02-25T08:02:01.967Z,96447.75
2023-02-25T08:04:30.105Z,96448.31
2023-02-25T08:06:59.266Z,96441.91
2023-02-25T08:09:27.066Z,96447.84
2023-02-25T08:11:55.220Z,96443.44
2023-02-25T08:14:25.953Z,96441.75
2023-02-25T08:16:57.161Z,96441.91
2023-02-25T08:19:25.183Z,96448.91
2023-02-25T08:21:54.845Z,96438.94
2023-02-25T08:24:24.172Z,96442.81
2023-02-25T08:26:52.151Z,96447.03
2023-02-25T08:29:20.151Z,96443.31
2023-02-25T08:31:49.104Z,96448.50
2023-02-25T08:34:17.007Z,96453.56
2023-02-25T08:36:44.779Z,96454.53
2023-02-25T08:39:12.865Z,96459.44
2023-02-25T08:41:42.954Z,96459.28
2023-02-25T08:44:10.971Z,96460.81
2023-02-25T08:46:38.847Z,96469.97
2023-02-25T08:49:07.084Z,96458.53
2023-02-25T08:51:35.278Z,96461.56
2023-02-25T08:54:05.054Z,96463.19
2023-02-25T08:56:32.904Z,96469.16
2023-02-25T08:59:02.342Z,96462.94
2023-02-25T09:01:44.538Z,96434.91
2023-02-25T09:04:12.892Z,96475.94
2023-02-25T09:06:40.763Z,96477.56
2023-02-25T09:09:08.565Z,96460.97
2023-02-25T09:11:36.815Z,96462.56
2023-02-25T09:14:05.915Z,96467.78
2023-02-25T09:16:34.105Z,96463.19
2023-02-25T09:19:01.929Z,96462.97
2023-02-25T09:21:29.936Z,96456.31
2023-02-25T09:23:58.365Z,96455.84
2023-02-25T09:26:26.358Z,96456.00
2023-02-25T09:28:54.232Z,96460.03
2023-02-25T09:31:23.789Z,96460.78
2023-02-25T09:33:52.129Z,96467.78
2023-02-25T09:36:21.427Z,96462.03
2023-02-25T09:38:50.356Z,96461.09
2023-02-25T09:41:25.679Z,96458.72
2023-02-25T09:44:02.133Z,96463.75
2023-02-25T09:46:31.929Z,96465.03
2023-02-25T09:49:02.747Z,96451.34
2023-02-25T09:51:35.480Z,96459.97
2023-02-25T09:54:12.092Z,96454.69
2023-02-25T09:56:40.239Z,96445.84
2023-02-25T09:59:14.377Z,96446.63
2023-02-25T10:01:47.279Z,96442.75
2023-02-25T10:04:18.618Z,96442.22
2023-02-25T10:06:49.116Z,96428.19
2023-02-25T10:09:23.108Z,96436.84
2023-02-25T10:11:54.061Z,96439.94
2023-02-25T10:14:32.641Z,96443.78
2023-02-25T10:17:07.101Z,96450.34
2023-02-25T10:19:51.981Z,96449.03
2023-02-25T10:22:27.685Z,96457.41
2023-02-25T10:24:59.391Z,96458.47
2023-02-25T10:27:31.186Z,96450.66
2023-02-25T10:30:04.818Z,96458.84
2023-02-25T10:32:36.220Z,96451.53
2023-02-25T10:35:17.671Z,96444.97
2023-02-25T10:37:45.806Z,96451.19
2023-02-25T10:40:17.510Z,96466.44
2023-02-25T10:42:48.372Z,96464.38
2023-02-25T10:45:21.744Z,96458.94
2023-02-25T10:47:56.253Z,96456.13
2023-02-25T10:50:42.975Z,96433.19
2023-02-25T10:53:15.911Z,96467.34
2023-02-25T10:55:55.232Z,96460.94
2023-02-25T10:58:27.260Z,96458.66
2023-02-25T11:00:57.656Z,96469.84
2023-02-25T11:03:27.832Z,96470.81
2023-02-25T11:06:09.823Z,96465.50
2023-02-25T11:08:38.052Z,96463.59
2023-02-25T11:11:07.573Z,96473.28
2023-02-25T11:13:37.409Z,96474.19
2023-02-25T11:16:08.025Z,96490.38
2023-02-25T11:18:38.240Z,96488.34
2023-02-25T11:21:08.195Z,96499.34
2023-02-25T11:23:38.083Z,96488.19
2023-02-25T11:26:07.822Z,96481.44
2023-02-25T11:28:40.011Z,96473.72
2023-02-25T11:31:14.346Z,96460.28
2023-02-25T11:33:45.356Z,96469.13
2023-02-25T11:36:13.781Z,96466.81
2023-02-25T11:38:42.927Z,96469.94
2023-02-25T11:41:18.687Z,96465.03
2023-02-25T11:43:46.458Z,96458.34
2023-02-25T11:46:18.119Z,96464.50
2023-02-25T11:48:51.306Z,96478.84
2023-02-25T11:51:26.347Z,96469.53
2023-02-25T11:54:19.946Z,96458.97
2023-02-25T11:56:50.516Z,96512.75
2023-02-25T11:59:30.252Z,96509.78
2023-02-25T12:02:21.299Z,96528.34
2023-02-25T12:05:05.519Z,96514.59
2023-02-25T12:08:12.541Z,96515.19
2023-02-25T12:11:09.814Z,96503.34
2023-02-25T12:14:00.516Z,96498.28
2023-02-25T12:16:51.250Z,96503.53
2023-02-25T12:19:55.272Z,96498.19
2023-02-25T12:22:59.620Z,96498.69
2023-02-25T12:25:33.863Z,96483.81
2023-02-25T12:28:11.519Z,96488.16
2023-02-25T12:31:08.062Z,96492.69
2023-02-25T12:33:54.346Z,96486.44
2023-02-25T12:36:41.030Z,96486.50
2023-02-25T12:39:19.186Z,96482.75
2023-02-25T12:41:49.906Z,96482.66
2023-02-25T12:44:37.041Z,96492.81
2023-02-25T12:47:16.690Z,96498.03
2023-02-25T12:50:01.445Z,96502.78
2023-02-25T12:52:38.059Z,96483.75
2023-02-25T12:55:17.228Z,96495.06
2023-02-25T12:57:52.892Z,96492.84
2023-02-25T13:00:33.923Z,96476.44
2023-02-25T13:03:21.192Z,96490.66
2023-02-25T13:06:22.450Z,96491.19
2023-02-25T13:09:02.297Z,96475.75
2023-02-25T13:11:48.219Z,96482.13
2023-02-25T13:14:38.036Z,96485.84
2023-02-25T13:17:29.156Z,96488.25
2023-02-25T13:20:28.174Z,96475.06
2023-02-25T13:23:08.553Z,96472.47
2023-02-25T13:25:47.344Z,96488.78
2023-02-25T13:28:42.894Z,96483.75
2023-02-25T13:31:17.466Z,96471.25
2023-02-25T13:33:51.392Z,96485.91
2023-02-25T13:36:45.114Z,96493.16
2023-02-25T13:39:24.079Z,96482.59
2023-02-25T13:42:04.451Z,96486.16
2023-02-25T13:44:52.257Z,96489.91
2023-02-25T13:47:34.397Z,96473.38
2023-02-25T13:50:29.898Z,96470.31
2023-02-25T13:53:09.846Z,96468.53
2023-02-25T13:56:01.955Z,96458.19
2023-02-25T13:58:52.452Z,96464.72
2023-02-25T14:01:32.138Z,96470.34
2023-02-25T14:04:22.639Z,96474.06
2023-02-25T14:07:22.950Z,96472.59
2023-02-25T14:10:00.762Z,96470.72
2023-02-25T14:12:43.939Z,96471.25
2023-02-25T14:15:22.560Z,96466.75
2023-02-25T14:18:03.892Z,96473.81
2023-02-25T14:20:40.660Z,96467.66
2023-02-25T14:23:13.177Z,96472.75
2023-02-25T14:25:51.960Z,96469.50
2023-02-25T14:28:27.289Z,96475.69
2023-02-25T14:31:03.336Z,96461.47
2023-02-25T14:33:40.758Z,96479.53
2023-02-25T14:36:20.744Z,96479.91
2023-02-25T14:39:06.634Z,96476.34
2023-02-25T14:41:47.383Z,96485.06
2023-02-25T14:44:20.909Z,96484.66
2023-02-25T14:46:52.816Z,96486.59
2023-02-25T14:49:22.341Z,96483.03
2023-02-25T14:52:13.093Z,96488.63
2023-02-25T14:55:18.868Z,96489.34
2023-02-25T14:58:13.928Z,96484.44
2023-02-25T15:00:58.389Z,96503.75
2023-02-25T15:03:53.475Z,96506.16
2023-02-25T15:06:31.228Z,96518.47
2023-02-25T15:09:24.920Z,96521.25
2023-02-25T15:12:11.338Z,96524.34
2023-02-25T15:15:31.642Z,96517.66
2023-02-25T15:18:38.015Z,96512.34
2023-02-25T15:21:33.993Z,96524.59
2023-02-25T15:24:03.042Z,96531.47
2023-02-25T15:26:44.971Z,96542.91
2023-02-25T15:29:57.482Z,96540.94
2023-02-25T15:32:27.973Z,96547.03
2023-02-25T15:34:58.546Z,96544.78
2023-02-25T15:37:30.230Z,96555.69
2023-02-25T15:39:59.070Z,96563.44
2023-02-25T15:42:47.972Z,96565.97
2023-02-25T15:45:36.906Z,96559.50
2023-02-25T15:48:31.583Z,96570.47
2023-02-25T15:51:01.330Z,96560.00
2023-02-25T15:53:48.336Z,96562.84
2023-02-25T15:56:47.697Z,96563.56
2023-02-25T15:59:44.647Z,96575.06
2023-02-25T16:02:35.436Z,96568.09
2023-02-25T16:05:05.418Z,96562.88
2023-02-25T16:07:36.170Z,96592.63
2023-02-25T16:10:07.386Z,96584.06
2023-02-25T16:12:35.452Z,96592.94
2023-02-25T16:15:05.635Z,96601.69
2023-02-25T16:17:35.415Z,96606.38
2023-02-25T16:20:11.966Z,96602.78
2023-02-25T16:22:41.591Z,96598.19
2023-02-25T16:25:15.229Z,96572.38
2023-02-25T16:27:53.441Z,96601.31
2023-02-25T16:30:27.095Z,96608.16
2023-02-25T16:33:01.053Z,96615.94
2023-02-25T16:35:32.147Z,96611.22
2023-02-25T16:38:10.885Z,96617.28
2023-02-25T16:40:40.451Z,96620.72
2023-02-25T16:43:13.113Z,96631.88
2023-02-25T16:45:44.216Z,96645.09
2023-02-25T16:48:18.671Z,96649.13
2023-02-25T16:50:47.761Z,96652.16
2023-02-25T16:53:19.264Z,96660.72
2023-02-25T16:55:47.049Z,96671.75
2023-02-25T16:58:22.768Z,96668.84
2023-02-25T17:00:54.063Z,96682.19
2023-02-25T17:03:22.741Z,96685.44
2023-02-25T17:06:04.797Z,96696.13
2023-02-25T17:08:32.572Z,96694.72
2023-02-25T17:11:01.267Z,96681.84
2023-02-25T17:13:30.804Z,96697.16
2023-02-25T17:16:03.946Z,96713.91
2023-02-25T17:18:33.453Z,96718.59
2023-02-25T17:21:04.255Z,96722.09
2023-02-25T17:23:33.002Z,96733.53
2023-02-25T17:26:00.966Z,96725.84
2023-02-25T17:28:30.858Z,96738.06
2023-02-25T17:31:09.657Z,96736.97
2023-02-25T17:33:48.319Z,96720.34
2023-02-25T17:36:17.928Z,96744.22
2023-02-25T17:38:46.463Z,96704.72
2023-02-25T17:41:16.947Z,96746.34
2023-02-25T17:43:44.901Z,96757.63
2023-02-25T17:46:27.124Z,96763.06
2023-02-25T17:48:58.047Z,96756.44
2023-02-25T17:51:33.529Z,96770.16
2023-02-25T17:54:05.756Z,96774.53
2023-02-25T17:56:34.653Z,96773.94
2023-02-25T17:59:05.882Z,96772.41
2023-02-25T18:01:48.822Z,96776.84
2023-02-25T18:04:24.628Z,96791.66
2023-02-25T18:06:53.320Z,96794.25
2023-02-25T18:09:39.832Z,96799.47
2023-02-25T18:12:10.066Z,96803.75
2023-02-25T18:14:39.321Z,96810.84
2023-02-25T18:17:23.145Z,96811.94
2023-02-25T18:19:51.087Z,96786.13
2023-02-25T18:22:33.589Z,96810.84
2023-02-25T18:25:03.751Z,96815.41
2023-02-25T18:27:32.876Z,96815.41
2023-02-25T18:30:18.207Z,96825.91
2023-02-25T18:32:47.939Z,96823.50
2023-02-25T18:35:16.592Z,96811.94
2023-02-25T18:37:45.255Z,96828.88
2023-02-25T18:40:16.868Z,96834.19
2023-02-25T18:42:45.068Z,96835.28
2023-02-25T18:45:17.320Z,96830.09
2023-02-25T18:47:45.329Z,96839.66
2023-02-25T18:50:14.886Z,96828.53
2023-02-25T18:52:43.243Z,96844.31
2023-02-25T18:55:18.483Z,96834.97
2023-02-25T18:57:46.335Z,96846.28
2023-02-25T19:00:15.679Z,96834.22
2023-02-25T19:02:47.736Z,96834.44
2023-02-25T19:05:17.705Z,96838.06
2023-02-25T19:07:46.078Z,96841.72
2023-02-25T19:10:17.247Z,96854.81
2023-02-25T19:12:45.562Z,96818.63
2023-02-25T19:15:15.993Z,96856.66
2023-02-25T19:17:43.815Z,96855.97
2023-02-25T19:20:13.722Z,96866.34
2023-02-25T19:22:43.957Z,96857.78
2023-02-25T19:25:18.898Z,96873.34
2023-02-25T19:27:46.699Z,96874.38
2023-02-25T19:30:16.907Z,96876.09
2023-02-25T19:32:44.780Z,96840.91
2023-02-25T19:35:12.926Z,96883.06
2023-02-25T19:37:43.409Z,96887.50
2023-02-25T19:40:13.393Z,96894.25
2023-02-25T19:42:43.259Z,96909.72
2023-02-25T19:45:13.036Z,96902.06
2023-02-25T19:47:40.843Z,96909.09
2023-02-25T19:50:11.676Z,96916.13
2023-02-25T19:52:39.818Z,96915.19
2023-02-25T19:55:11.436Z,96920.44
2023-02-25T19:57:40.017Z,96929.22
2023-02-25T20:00:10.103Z,96932.53
2023-02-25T20:02:37.890Z,96945.31
2023-02-25T20:05:06.706Z,96939.28
2023-02-25T20:07:34.465Z,96941.13
2023-02-25T20:10:02.455Z,96951.69
2023-02-25T20:12:31.600Z,96955.16
2023-02-25T20:14:59.411Z,96960.53
2023-02-25T20:17:27.178Z,96953.88
2023-02-25T20:19:55.006Z,96963.38
2023-02-25T20:22:23.869Z,96957.47
2023-02-25T20:24:51.860Z,96966.25
2023-02-25T20:27:19.725Z,96962.03
2023-02-25T20:29:49.084Z,96962.09
2023-02-25T20:32:17.126Z,96962.22
2023-02-25T20:34:45.260Z,96969.13
2023-02-25T20:37:16.230Z,96970.06
2023-02-25T20:39:53.391Z,96954.16
2023-02-25T20:42:23.312Z,96972.00
2023-02-25T20:44:53.878Z,96973.91
2023-02-25T20:47:24.394Z,96979.06
2023-02-25T20:49:53.155Z,96983.47
2023-02-25T20:52:21.323Z,96995.47
2023-02-25T20:54:49.999Z,96996.28
2023-02-25T20:57:20.656Z,97005.88
2023-02-25T20:59:49.249Z,97003.34
2023-02-25T21:02:18.568Z,97011.78
2023-02-25T21:04:46.621Z,97007.31
2023-02-25T21:07:15.093Z,97012.47
2023-02-25T21:09:42.986Z,97015.22
2023-02-25T21:12:11.008Z,97011.13
2023-02-25T21:14:38.887Z,97015.56
2023-02-25T21:17:09.546Z,97015.59
2023-02-25T21:19:39.318Z,97020.78
2023-02-25T21:22:07.237Z,97026.03
2023-02-25T21:24:36.226Z,97027.03
2023-02-25T21:27:04.780Z,97034.97
2023-02-25T21:29:33.263Z,97027.28
2023-02-25T21:32:01.101Z,97029.88
2023-02-25T21:34:29.064Z,97030.72
2023-02-25T21:36:59.341Z,97040.19
2023-02-25T21:39:27.357Z,97032.50
2023-02-25T21:41:55.748Z,97036.91
2023-02-25T21:44:23.590Z,97045.53
2023-02-25T21:46:51.475Z,97043.16
2023-02-25T21:49:19.477Z,97047.56
2023-02-25T21:51:47.343Z,97044.00
2023-02-25T21:54:17.225Z,97053.63
2023-02-25T21:56:45.036Z,97056.28
2023-02-25T21:59:12.898Z,97059.03
2023-02-25T22:01:41.678Z,97061.56
2023-02-25T22:04:09.845Z,97062.59
2023-02-25T22:06:37.859Z,97059.16
2023-02-25T22:09:06.991Z,97057.59
2023-02-25T22:11:37.642Z,97067.06
2023-02-25T22:14:07.360Z,97075.72
2023-02-25T22:16:35.872Z,97067.25
2023-02-25T22:19:03.679Z,97066.53
2023-02-25T22:21:32.739Z,97065.72
2023-02-25T22:24:02.462Z,97072.56
2023-02-25T22:26:32.647Z,97073.53
2023-02-25T22:29:04.228Z,97061.44
2023-02-25T22:31:32.609Z,97063.97
2023-02-25T22:34:00.925Z,97058.84
2023-02-25T22:36:28.824Z,97070.06
2023-02-25T22:38:56.874Z,97069.34
2023-02-25T22:41:26.870Z,97068.63
2023-02-25T22:43:54.951Z,97065.25
2023-02-25T22:46:26.567Z,97052.38
2023-02-25T22:48:55.165Z,97061.94
2023-02-25T22:51:25.328Z,97055.03
2023-02-25T22:53:53.651Z,97056.84
2023-02-25T22:56:21.871Z,97056.03
2023-02-25T22:58:49.786Z,97055.19
2023-02-25T23:01:19.855Z,97061.22
2023-02-25T23:03:49.650Z,97065.63
2023-02-25T23:06:19.461Z,97065.63
2023-02-25T23:08:47.267Z,97076.00
2023-02-25T23:11:16.465Z,97067.44
2023-02-25T23:13:47.475Z,97071.78
2023-02-25T23:16:16.201Z,97070.06
2023-02-25T23:18:44.071Z,97068.47
2023-02-25T23:21:19.025Z,97076.22
2023-02-25T23:23:48.264Z,97079.69
2023-02-25T23:26:17.405Z,97077.16
2023-02-25T23:28:45.771Z,97079.75
2023-02-25T23:31:19.895Z,97079.84
2023-02-25T23:33:47.740Z,97075.53
2023-02-25T23:36:16.968Z,97067.88
2023-02-25T23:38:44.751Z,97061.03
2023-02-25T23:41:12.576Z,97062.75
2023-02-25T23:43:40.572Z,97066.22
2023-02-25T23:46:08.546Z,97063.75
2023-02-25T23:48:36.364Z,97069.75
2023-02-25T23:51:08.662Z,97074.97
2023-02-25T23:53:37.812Z,97063.03
2023-02-25T23:56:06.995Z,97067.25
2023-02-25T23:58:34.860Z,97066.41
